Terminal Aerodrome Forecast
Issued by NWS Duluth, MN

Home | Current Version | Previous Version | Text Only | Print | Product List | Glossary On
Versions: 1 2 3 4 5 6 7 8 9 10 11 12 13 14 15 16 17
397
FTUS43 KDLH 202339
TAFDLH
TAF
KDLH 202339Z 2100/2124 VRB05KT P6SM BKN110
     FM211000 VRB03KT 2SM BR BKN250
     FM211600 01004KT P6SM BKN150
     FM211800 04005KT P6SM BKN150=

USA.gov is the U.S. government's official web portal to all federal, state and local government web resources and services.